sensor_id;sensor_type;location;lat;lon;timestamp;P1;durP1;ratioP1;P2;durP2;ratioP2
2061;SDS011;11070;51.336;12.340;2023-04-15T00:00:35;16.20;;;12.30;;
2061;SDS011;11070;51.336;12.340;2023-04-15T00:03:01;16.15;;;12.43;;
2061;SDS011;11070;51.336;12.340;2023-04-15T00:05:30;16.77;;;12.90;;
2061;SDS011;11070;51.336;12.340;2023-04-15T00:07:56;16.52;;;13.00;;
2061;SDS011;11070;51.336;12.340;2023-04-15T00:10:23;12.95;;;10.73;;
2061;SDS011;11070;51.336;12.340;2023-04-15T00:12:49;14.85;;;11.73;;
2061;SDS011;11070;51.336;12.340;2023-04-15T00:15:16;13.93;;;11.43;;
2061;SDS011;11070;51.336;12.340;2023-04-15T00:17:42;15.13;;;11.97;;
2061;SDS011;11070;51.336;12.340;2023-04-15T00:20:07;14.03;;;11.23;;
2061;SDS011;11070;51.336;12.340;2023-04-15T00:22:34;13.82;;;10.10;;
2061;SDS011;11070;51.336;12.340;2023-04-15T00:25:00;10.07;;;8.70;;
2061;SDS011;11070;51.336;12.340;2023-04-15T00:27:26;10.82;;;9.07;;
2061;SDS011;11070;51.336;12.340;2023-04-15T00:29:51;10.67;;;8.33;;
2061;SDS011;11070;51.336;12.340;2023-04-15T00:32:17;11.00;;;9.07;;
2061;SDS011;11070;51.336;12.340;2023-04-15T00:34:44;8.98;;;7.65;;
2061;SDS011;11070;51.336;12.340;2023-04-15T00:37:10;10.50;;;8.65;;
2061;SDS011;11070;51.336;12.340;2023-04-15T00:39:36;10.60;;;8.00;;
2061;SDS011;11070;51.336;12.340;2023-04-15T00:42:05;10.33;;;8.33;;
2061;SDS011;11070;51.336;12.340;2023-04-15T00:44:30;9.45;;;8.48;;
2061;SDS011;11070;51.336;12.340;2023-04-15T00:46:57;11.77;;;9.60;;
2061;SDS011;11070;51.336;12.340;2023-04-15T00:49:24;12.07;;;9.23;;
2061;SDS011;11070;51.336;12.340;2023-04-15T00:51:51;10.30;;;9.20;;
2061;SDS011;11070;51.336;12.340;2023-04-15T00:54:16;12.47;;;9.00;;
2061;SDS011;11070;51.336;12.340;2023-04-15T00:56:42;10.00;;;8.93;;
2061;SDS011;11070;51.336;12.340;2023-04-15T00:59:08;10.03;;;8.93;;
2061;SDS011;11070;51.336;12.340;2023-04-15T01:01:34;11.80;;;9.43;;
2061;SDS011;11070;51.336;12.340;2023-04-15T01:04:00;9.70;;;8.50;;
2061;SDS011;11070;51.336;12.340;2023-04-15T01:06:27;12.40;;;8.82;;
2061;SDS011;11070;51.336;12.340;2023-04-15T01:08:53;10.05;;;8.27;;
2061;SDS011;11070;51.336;12.340;2023-04-15T01:11:20;9.15;;;8.25;;
2061;SDS011;11070;51.336;12.340;2023-04-15T01:13:48;9.25;;;8.00;;
2061;SDS011;11070;51.336;12.340;2023-04-15T01:16:18;10.32;;;8.60;;
2061;SDS011;11070;51.336;12.340;2023-04-15T01:18:44;9.63;;;8.57;;
2061;SDS011;11070;51.336;12.340;2023-04-15T01:21:10;8.95;;;7.75;;
2061;SDS011;11070;51.336;12.340;2023-04-15T01:23:36;9.38;;;8.38;;
2061;SDS011;11070;51.336;12.340;2023-04-15T01:26:03;9.02;;;8.13;;
2061;SDS011;11070;51.336;12.340;2023-04-15T01:28:29;9.10;;;8.07;;
2061;SDS011;11070;51.336;12.340;2023-04-15T01:31:09;10.63;;;8.90;;
2061;SDS011;11070;51.336;12.340;2023-04-15T01:33:37;9.10;;;7.90;;
2061;SDS011;11070;51.336;12.340;2023-04-15T01:36:05;11.15;;;8.77;;
2061;SDS011;11070;51.336;12.340;2023-04-15T01:38:32;10.60;;;8.25;;
2061;SDS011;11070;51.336;12.340;2023-04-15T01:40:58;8.90;;;7.53;;
2061;SDS011;11070;51.336;12.340;2023-04-15T01:43:24;10.10;;;9.00;;
2061;SDS011;11070;51.336;12.340;2023-04-15T01:45:50;10.18;;;8.05;;
2061;SDS011;11070;51.336;12.340;2023-04-15T01:48:16;10.37;;;8.93;;
2061;SDS011;11070;51.336;12.340;2023-04-15T01:50:42;10.60;;;8.00;;
2061;SDS011;11070;51.336;12.340;2023-04-15T01:53:08;9.67;;;8.37;;
2061;SDS011;11070;51.336;12.340;2023-04-15T01:55:35;10.82;;;8.95;;
2061;SDS011;11070;51.336;12.340;2023-04-15T01:58:01;11.27;;;8.65;;
2061;SDS011;11070;51.336;12.340;2023-04-15T02:00:27;9.97;;;8.30;;
2061;SDS011;11070;51.336;12.340;2023-04-15T02:02:52;10.53;;;8.40;;
2061;SDS011;11070;51.336;12.340;2023-04-15T02:05:18;10.50;;;8.40;;
2061;SDS011;11070;51.336;12.340;2023-04-15T02:07:44;9.90;;;8.20;;
2061;SDS011;11070;51.336;12.340;2023-04-15T02:10:10;9.57;;;7.87;;
2061;SDS011;11070;51.336;12.340;2023-04-15T02:12:37;9.15;;;7.20;;
2061;SDS011;11070;51.336;12.340;2023-04-15T02:15:03;8.13;;;7.07;;
2061;SDS011;11070;51.336;12.340;2023-04-15T02:17:29;10.00;;;7.97;;
2061;SDS011;11070;51.336;12.340;2023-04-15T02:19:59;8.95;;;7.55;;
2061;SDS011;11070;51.336;12.340;2023-04-15T02:22:24;9.10;;;7.63;;
2061;SDS011;11070;51.336;12.340;2023-04-15T02:24:50;9.50;;;7.90;;
2061;SDS011;11070;51.336;12.340;2023-04-15T02:27:16;10.77;;;8.80;;
2061;SDS011;11070;51.336;12.340;2023-04-15T02:29:43;9.73;;;7.60;;
2061;SDS011;11070;51.336;12.340;2023-04-15T02:32:12;8.20;;;7.05;;
2061;SDS011;11070;51.336;12.340;2023-04-15T02:34:38;10.68;;;7.88;;
2061;SDS011;11070;51.336;12.340;2023-04-15T02:37:05;9.07;;;7.60;;
2061;SDS011;11070;51.336;12.340;2023-04-15T02:39:31;8.18;;;7.05;;
2061;SDS011;11070;51.336;12.340;2023-04-15T02:41:58;8.48;;;7.57;;
2061;SDS011;11070;51.336;12.340;2023-04-15T02:44:25;8.00;;;7.15;;
2061;SDS011;11070;51.336;12.340;2023-04-15T02:46:51;8.85;;;6.97;;
2061;SDS011;11070;51.336;12.340;2023-04-15T02:49:19;7.88;;;6.65;;
2061;SDS011;11070;51.336;12.340;2023-04-15T02:51:45;8.30;;;7.15;;
2061;SDS011;11070;51.336;12.340;2023-04-15T02:54:13;10.07;;;7.85;;
2061;SDS011;11070;51.336;12.340;2023-04-15T02:56:39;9.27;;;7.85;;
2061;SDS011;11070;51.336;12.340;2023-04-15T02:59:05;10.20;;;8.23;;
2061;SDS011;11070;51.336;12.340;2023-04-15T03:01:31;10.00;;;8.60;;
2061;SDS011;11070;51.336;12.340;2023-04-15T03:03:56;10.30;;;8.17;;
2061;SDS011;11070;51.336;12.340;2023-04-15T03:06:22;11.23;;;8.83;;
2061;SDS011;11070;51.336;12.340;2023-04-15T03:08:48;9.60;;;7.72;;
2061;SDS011;11070;51.336;12.340;2023-04-15T03:11:14;12.45;;;9.88;;
2061;SDS011;11070;51.336;12.340;2023-04-15T03:13:41;12.07;;;9.60;;
2061;SDS011;11070;51.336;12.340;2023-04-15T03:16:07;12.75;;;9.93;;
2061;SDS011;11070;51.336;12.340;2023-04-15T03:18:33;13.93;;;10.30;;
2061;SDS011;11070;51.336;12.340;2023-04-15T03:20:59;15.13;;;10.53;;
2061;SDS011;11070;51.336;12.340;2023-04-15T03:23:25;14.77;;;10.60;;
2061;SDS011;11070;51.336;12.340;2023-04-15T03:25:51;15.80;;;11.37;;
2061;SDS011;11070;51.336;12.340;2023-04-15T03:28:19;17.05;;;11.38;;
2061;SDS011;11070;51.336;12.340;2023-04-15T03:30:45;14.10;;;11.00;;
2061;SDS011;11070;51.336;12.340;2023-04-15T03:33:11;13.93;;;10.23;;
2061;SDS011;11070;51.336;12.340;2023-04-15T03:35:36;14.53;;;10.37;;
2061;SDS011;11070;51.336;12.340;2023-04-15T03:38:02;13.03;;;9.77;;
2061;SDS011;11070;51.336;12.340;2023-04-15T03:40:28;12.67;;;8.80;;
2061;SDS011;11070;51.336;12.340;2023-04-15T03:42:54;14.40;;;9.50;;
2061;SDS011;11070;51.336;12.340;2023-04-15T03:45:19;11.17;;;8.70;;
2061;SDS011;11070;51.336;12.340;2023-04-15T03:47:48;10.02;;;8.32;;
2061;SDS011;11070;51.336;12.340;2023-04-15T03:50:13;10.30;;;7.83;;
2061;SDS011;11070;51.336;12.340;2023-04-15T03:52:39;8.37;;;7.20;;
2061;SDS011;11070;51.336;12.340;2023-04-15T03:55:05;9.17;;;7.50;;
2061;SDS011;11070;51.336;12.340;2023-04-15T03:57:32;8.82;;;7.10;;
2061;SDS011;11070;51.336;12.340;2023-04-15T04:00:02;11.10;;;7.95;;
2061;SDS011;11070;51.336;12.340;2023-04-15T04:02:28;10.43;;;7.82;;
2061;SDS011;11070;51.336;12.340;2023-04-15T04:04:54;8.60;;;6.87;;
2061;SDS011;11070;51.336;12.340;2023-04-15T04:07:20;8.63;;;7.00;;
2061;SDS011;11070;51.336;12.340;2023-04-15T04:09:48;8.07;;;7.00;;
2061;SDS011;11070;51.336;12.340;2023-04-15T04:12:14;8.15;;;6.35;;
2061;SDS011;11070;51.336;12.340;2023-04-15T04:14:40;9.33;;;7.60;;
2061;SDS011;11070;51.336;12.340;2023-04-15T04:17:06;8.97;;;6.80;;
2061;SDS011;11070;51.336;12.340;2023-04-15T04:19:31;8.53;;;6.80;;
2061;SDS011;11070;51.336;12.340;2023-04-15T04:21:57;7.33;;;6.20;;
2061;SDS011;11070;51.336;12.340;2023-04-15T04:24:23;7.00;;;6.30;;
2061;SDS011;11070;51.336;12.340;2023-04-15T04:26:49;6.95;;;5.60;;
2061;SDS011;11070;51.336;12.340;2023-04-15T04:29:15;9.13;;;7.17;;
2061;SDS011;11070;51.336;12.340;2023-04-15T04:31:40;7.43;;;6.13;;
2061;SDS011;11070;51.336;12.340;2023-04-15T04:34:06;9.00;;;6.67;;
2061;SDS011;11070;51.336;12.340;2023-04-15T04:36:32;7.13;;;5.93;;
2061;SDS011;11070;51.336;12.340;2023-04-15T04:38:57;7.80;;;6.10;;
2061;SDS011;11070;51.336;12.340;2023-04-15T04:41:23;9.20;;;5.77;;
2061;SDS011;11070;51.336;12.340;2023-04-15T04:43:49;7.87;;;5.90;;
2061;SDS011;11070;51.336;12.340;2023-04-15T04:46:14;8.17;;;6.10;;
2061;SDS011;11070;51.336;12.340;2023-04-15T04:48:40;8.20;;;6.13;;
2061;SDS011;11070;51.336;12.340;2023-04-15T04:51:06;7.30;;;6.03;;
2061;SDS011;11070;51.336;12.340;2023-04-15T04:53:32;8.48;;;7.00;;
2061;SDS011;11070;51.336;12.340;2023-04-15T04:55:57;8.77;;;6.77;;
2061;SDS011;11070;51.336;12.340;2023-04-15T04:58:23;8.83;;;6.57;;
2061;SDS011;11070;51.336;12.340;2023-04-15T05:00:49;7.77;;;6.37;;
2061;SDS011;11070;51.336;12.340;2023-04-15T05:03:15;9.15;;;6.95;;
2061;SDS011;11070;51.336;12.340;2023-04-15T05:05:41;7.70;;;6.80;;
2061;SDS011;11070;51.336;12.340;2023-04-15T05:08:07;8.10;;;6.43;;
2061;SDS011;11070;51.336;12.340;2023-04-15T05:10:33;9.10;;;6.47;;
2061;SDS011;11070;51.336;12.340;2023-04-15T05:12:58;9.10;;;6.97;;
2061;SDS011;11070;51.336;12.340;2023-04-15T05:15:24;9.07;;;6.53;;
2061;SDS011;11070;51.336;12.340;2023-04-15T05:17:50;9.00;;;7.30;;
2061;SDS011;11070;51.336;12.340;2023-04-15T05:20:15;9.40;;;7.63;;
2061;SDS011;11070;51.336;12.340;2023-04-15T05:22:41;8.43;;;7.10;;
2061;SDS011;11070;51.336;12.340;2023-04-15T05:25:07;8.87;;;6.90;;
2061;SDS011;11070;51.336;12.340;2023-04-15T05:27:33;10.30;;;7.10;;
2061;SDS011;11070;51.336;12.340;2023-04-15T05:29:59;8.20;;;6.80;;
2061;SDS011;11070;51.336;12.340;2023-04-15T05:32:25;7.80;;;6.50;;
2061;SDS011;11070;51.336;12.340;2023-04-15T05:34:51;10.20;;;7.33;;
2061;SDS011;11070;51.336;12.340;2023-04-15T05:37:16;10.30;;;7.90;;
2061;SDS011;11070;51.336;12.340;2023-04-15T05:39:44;10.45;;;7.22;;
2061;SDS011;11070;51.336;12.340;2023-04-15T05:42:10;8.80;;;7.00;;
2061;SDS011;11070;51.336;12.340;2023-04-15T05:44:36;8.63;;;7.47;;
2061;SDS011;11070;51.336;12.340;2023-04-15T05:47:02;8.80;;;6.73;;
2061;SDS011;11070;51.336;12.340;2023-04-15T05:49:28;9.57;;;7.30;;
2061;SDS011;11070;51.336;12.340;2023-04-15T05:51:53;10.25;;;7.80;;
2061;SDS011;11070;51.336;12.340;2023-04-15T05:54:19;9.90;;;8.20;;
2061;SDS011;11070;51.336;12.340;2023-04-15T05:56:47;10.25;;;7.50;;
2061;SDS011;11070;51.336;12.340;2023-04-15T05:59:13;9.65;;;8.00;;
2061;SDS011;11070;51.336;12.340;2023-04-15T06:01:39;10.80;;;8.03;;
2061;SDS011;11070;51.336;12.340;2023-04-15T06:04:04;11.47;;;7.87;;
2061;SDS011;11070;51.336;12.340;2023-04-15T06:06:30;11.60;;;8.40;;
2061;SDS011;11070;51.336;12.340;2023-04-15T06:08:56;12.50;;;8.90;;
2061;SDS011;11070;51.336;12.340;2023-04-15T06:11:22;10.70;;;8.53;;
2061;SDS011;11070;51.336;12.340;2023-04-15T06:13:48;11.07;;;9.37;;
2061;SDS011;11070;51.336;12.340;2023-04-15T06:16:14;10.87;;;8.53;;
2061;SDS011;11070;51.336;12.340;2023-04-15T06:18:39;10.40;;;8.30;;
2061;SDS011;11070;51.336;12.340;2023-04-15T06:21:05;8.97;;;7.67;;
2061;SDS011;11070;51.336;12.340;2023-04-15T06:23:33;8.43;;;7.07;;
2061;SDS011;11070;51.336;12.340;2023-04-15T06:26:00;9.25;;;8.02;;
2061;SDS011;11070;51.336;12.340;2023-04-15T06:28:26;8.88;;;6.85;;
2061;SDS011;11070;51.336;12.340;2023-04-15T06:30:52;8.20;;;7.13;;
2061;SDS011;11070;51.336;12.340;2023-04-15T06:33:18;8.05;;;6.88;;
2061;SDS011;11070;51.336;12.340;2023-04-15T06:35:44;10.90;;;7.90;;
2061;SDS011;11070;51.336;12.340;2023-04-15T06:38:14;9.45;;;7.68;;
2061;SDS011;11070;51.336;12.340;2023-04-15T06:40:39;11.40;;;8.33;;
2061;SDS011;11070;51.336;12.340;2023-04-15T06:43:06;8.00;;;7.15;;
2061;SDS011;11070;51.336;12.340;2023-04-15T06:45:32;9.63;;;8.00;;
2061;SDS011;11070;51.336;12.340;2023-04-15T06:47:57;9.37;;;7.63;;
2061;SDS011;11070;51.336;12.340;2023-04-15T06:50:23;9.70;;;8.10;;
2061;SDS011;11070;51.336;12.340;2023-04-15T06:52:49;9.37;;;7.63;;
2061;SDS011;11070;51.336;12.340;2023-04-15T06:55:15;9.70;;;7.57;;
2061;SDS011;11070;51.336;12.340;2023-04-15T06:57:40;9.93;;;8.60;;
2061;SDS011;11070;51.336;12.340;2023-04-15T07:00:06;11.63;;;8.37;;
2061;SDS011;11070;51.336;12.340;2023-04-15T07:02:32;10.20;;;8.32;;
2061;SDS011;11070;51.336;12.340;2023-04-15T07:04:58;9.97;;;8.27;;
2061;SDS011;11070;51.336;12.340;2023-04-15T07:07:24;13.00;;;10.30;;
2061;SDS011;11070;51.336;12.340;2023-04-15T07:09:50;10.55;;;8.90;;
2061;SDS011;11070;51.336;12.340;2023-04-15T07:12:17;11.25;;;9.15;;
2061;SDS011;11070;51.336;12.340;2023-04-15T07:14:43;12.30;;;10.00;;
2061;SDS011;11070;51.336;12.340;2023-04-15T07:17:09;12.83;;;10.10;;
2061;SDS011;11070;51.336;12.340;2023-04-15T07:19:35;13.63;;;11.05;;
2061;SDS011;11070;51.336;12.340;2023-04-15T07:22:01;15.07;;;11.23;;
2061;SDS011;11070;51.336;12.340;2023-04-15T07:24:30;14.88;;;11.27;;
2061;SDS011;11070;51.336;12.340;2023-04-15T07:26:56;13.60;;;10.50;;
2061;SDS011;11070;51.336;12.340;2023-04-15T07:29:22;16.30;;;11.65;;
2061;SDS011;11070;51.336;12.340;2023-04-15T07:31:48;15.90;;;11.73;;
2061;SDS011;11070;51.336;12.340;2023-04-15T07:34:13;15.63;;;11.73;;
2061;SDS011;11070;51.336;12.340;2023-04-15T07:36:40;16.23;;;12.55;;
2061;SDS011;11070;51.336;12.340;2023-04-15T07:39:06;15.52;;;12.25;;
2061;SDS011;11070;51.336;12.340;2023-04-15T07:41:32;15.30;;;12.47;;
2061;SDS011;11070;51.336;12.340;2023-04-15T07:43:58;13.80;;;12.20;;
2061;SDS011;11070;51.336;12.340;2023-04-15T07:46:24;14.70;;;11.70;;
2061;SDS011;11070;51.336;12.340;2023-04-15T07:48:51;16.65;;;12.25;;
2061;SDS011;11070;51.336;12.340;2023-04-15T07:51:17;14.43;;;11.73;;
2061;SDS011;11070;51.336;12.340;2023-04-15T07:53:45;15.15;;;11.68;;
2061;SDS011;11070;51.336;12.340;2023-04-15T07:56:11;13.50;;;10.63;;
2061;SDS011;11070;51.336;12.340;2023-04-15T07:58:37;14.83;;;11.50;;
2061;SDS011;11070;51.336;12.340;2023-04-15T08:01:03;12.43;;;10.53;;
2061;SDS011;11070;51.336;12.340;2023-04-15T08:03:29;12.95;;;11.10;;
2061;SDS011;11070;51.336;12.340;2023-04-15T08:05:55;14.82;;;11.52;;
2061;SDS011;11070;51.336;12.340;2023-04-15T08:08:21;15.83;;;11.60;;
2061;SDS011;11070;51.336;12.340;2023-04-15T08:10:47;16.03;;;11.40;;
2061;SDS011;11070;51.336;12.340;2023-04-15T08:13:12;14.13;;;10.70;;
2061;SDS011;11070;51.336;12.340;2023-04-15T08:15:38;15.70;;;10.90;;
2061;SDS011;11070;51.336;12.340;2023-04-15T08:18:04;14.83;;;11.23;;
2061;SDS011;11070;51.336;12.340;2023-04-15T08:20:30;12.23;;;10.25;;
2061;SDS011;11070;51.336;12.340;2023-04-15T08:22:56;15.38;;;12.80;;
2061;SDS011;11070;51.336;12.340;2023-04-15T08:25:22;16.40;;;12.77;;
2061;SDS011;11070;51.336;12.340;2023-04-15T08:27:48;14.27;;;10.93;;
2061;SDS011;11070;51.336;12.340;2023-04-15T08:30:13;19.53;;;15.23;;
2061;SDS011;11070;51.336;12.340;2023-04-15T08:32:40;14.53;;;11.57;;
2061;SDS011;11070;51.336;12.340;2023-04-15T08:35:10;16.15;;;11.90;;
2061;SDS011;11070;51.336;12.340;2023-04-15T08:37:36;162.50;;;80.87;;
2061;SDS011;11070;51.336;12.340;2023-04-15T08:40:02;21.23;;;15.30;;
2061;SDS011;11070;51.336;12.340;2023-04-15T08:42:41;16.50;;;13.00;;
2061;SDS011;11070;51.336;12.340;2023-04-15T08:45:12;38.75;;;25.20;;
2061;SDS011;11070;51.336;12.340;2023-04-15T08:47:37;19.10;;;13.63;;
2061;SDS011;11070;51.336;12.340;2023-04-15T08:50:05;20.65;;;15.30;;
2061;SDS011;11070;51.336;12.340;2023-04-15T08:52:33;17.88;;;13.20;;
2061;SDS011;11070;51.336;12.340;2023-04-15T08:54:59;16.10;;;12.10;;
2061;SDS011;11070;51.336;12.340;2023-04-15T08:57:27;15.93;;;11.88;;
2061;SDS011;11070;51.336;12.340;2023-04-15T08:59:56;26.63;;;19.50;;
2061;SDS011;11070;51.336;12.340;2023-04-15T09:02:22;21.42;;;14.88;;
2061;SDS011;11070;51.336;12.340;2023-04-15T09:04:50;18.88;;;14.98;;
2061;SDS011;11070;51.336;12.340;2023-04-15T09:07:16;21.73;;;15.70;;
2061;SDS011;11070;51.336;12.340;2023-04-15T09:09:41;25.30;;;14.60;;
2061;SDS011;11070;51.336;12.340;2023-04-15T09:12:07;19.03;;;14.00;;
2061;SDS011;11070;51.336;12.340;2023-04-15T09:14:33;22.95;;;18.85;;
2061;SDS011;11070;51.336;12.340;2023-04-15T09:17:02;21.10;;;15.40;;
2061;SDS011;11070;51.336;12.340;2023-04-15T09:19:29;20.65;;;14.68;;
2061;SDS011;11070;51.336;12.340;2023-04-15T09:21:56;21.60;;;16.00;;
2061;SDS011;11070;51.336;12.340;2023-04-15T09:24:23;21.15;;;15.65;;
2061;SDS011;11070;51.336;12.340;2023-04-15T09:26:51;41.57;;;29.37;;
2061;SDS011;11070;51.336;12.340;2023-04-15T09:29:18;24.52;;;17.63;;
2061;SDS011;11070;51.336;12.340;2023-04-15T09:31:44;22.00;;;17.03;;
2061;SDS011;11070;51.336;12.340;2023-04-15T09:34:10;22.43;;;17.30;;
2061;SDS011;11070;51.336;12.340;2023-04-15T09:39:11;29.67;;;20.92;;
2061;SDS011;11070;51.336;12.340;2023-04-15T09:41:37;31.45;;;22.00;;
2061;SDS011;11070;51.336;12.340;2023-04-15T09:44:03;24.00;;;17.63;;
2061;SDS011;11070;51.336;12.340;2023-04-15T09:46:44;23.70;;;19.25;;
2061;SDS011;11070;51.336;12.340;2023-04-15T09:49:10;22.50;;;17.42;;
2061;SDS011;11070;51.336;12.340;2023-04-15T09:51:37;25.00;;;18.73;;
2061;SDS011;11070;51.336;12.340;2023-04-15T09:54:03;25.45;;;18.35;;
2061;SDS011;11070;51.336;12.340;2023-04-15T09:56:36;25.13;;;18.67;;
2061;SDS011;11070;51.336;12.340;2023-04-15T09:59:05;26.50;;;19.58;;
2061;SDS011;11070;51.336;12.340;2023-04-15T10:01:31;26.73;;;20.25;;
2061;SDS011;11070;51.336;12.340;2023-04-15T10:03:57;26.67;;;20.07;;
2061;SDS011;11070;51.336;12.340;2023-04-15T10:06:26;25.42;;;19.13;;
2061;SDS011;11070;51.336;12.340;2023-04-15T10:08:53;29.52;;;20.75;;
2061;SDS011;11070;51.336;12.340;2023-04-15T10:11:20;27.70;;;20.83;;
2061;SDS011;11070;51.336;12.340;2023-04-15T10:13:48;26.98;;;20.45;;
2061;SDS011;11070;51.336;12.340;2023-04-15T10:16:15;27.48;;;20.23;;
2061;SDS011;11070;51.336;12.340;2023-04-15T10:18:44;28.33;;;22.00;;
2061;SDS011;11070;51.336;12.340;2023-04-15T10:21:12;31.55;;;22.55;;
2061;SDS011;11070;51.336;12.340;2023-04-15T10:23:40;31.35;;;21.92;;
2061;SDS011;11070;51.336;12.340;2023-04-15T10:26:06;28.38;;;21.27;;
2061;SDS011;11070;51.336;12.340;2023-04-15T10:28:33;33.63;;;23.77;;
2061;SDS011;11070;51.336;12.340;2023-04-15T10:30:59;33.93;;;23.77;;
2061;SDS011;11070;51.336;12.340;2023-04-15T10:33:26;36.80;;;26.75;;
2061;SDS011;11070;51.336;12.340;2023-04-15T10:35:53;31.10;;;24.10;;
2061;SDS011;11070;51.336;12.340;2023-04-15T10:38:32;32.88;;;24.35;;
2061;SDS011;11070;51.336;12.340;2023-04-15T10:41:16;38.67;;;26.83;;
2061;SDS011;11070;51.336;12.340;2023-04-15T10:44:01;39.40;;;27.17;;
2061;SDS011;11070;51.336;12.340;2023-04-15T10:46:43;30.95;;;23.70;;
2061;SDS011;11070;51.336;12.340;2023-04-15T10:49:10;30.35;;;23.30;;
2061;SDS011;11070;51.336;12.340;2023-04-15T10:51:41;31.73;;;23.30;;
2061;SDS011;11070;51.336;12.340;2023-04-15T10:54:30;33.35;;;25.08;;
2061;SDS011;11070;51.336;12.340;2023-04-15T10:59:30;28.10;;;22.13;;
2061;SDS011;11070;51.336;12.340;2023-04-15T11:02:03;27.90;;;22.00;;
2061;SDS011;11070;51.336;12.340;2023-04-15T11:07:48;27.83;;;21.60;;
2061;SDS011;11070;51.336;12.340;2023-04-15T11:12:41;30.47;;;23.90;;
2061;SDS011;11070;51.336;12.340;2023-04-15T11:17:49;31.42;;;22.70;;
2061;SDS011;11070;51.336;12.340;2023-04-15T11:20:15;29.00;;;22.88;;
2061;SDS011;11070;51.336;12.340;2023-04-15T11:22:48;29.00;;;23.42;;
2061;SDS011;11070;51.336;12.340;2023-04-15T11:25:26;26.95;;;22.05;;
2061;SDS011;11070;51.336;12.340;2023-04-15T11:27:53;29.70;;;23.65;;
2061;SDS011;11070;51.336;12.340;2023-04-15T11:30:20;26.25;;;21.58;;
2061;SDS011;11070;51.336;12.340;2023-04-15T11:32:47;26.48;;;21.65;;
2061;SDS011;11070;51.336;12.340;2023-04-15T11:35:15;29.85;;;22.60;;
2061;SDS011;11070;51.336;12.340;2023-04-15T11:37:42;26.58;;;21.13;;
2061;SDS011;11070;51.336;12.340;2023-04-15T11:40:08;25.60;;;20.48;;
2061;SDS011;11070;51.336;12.340;2023-04-15T11:42:36;23.58;;;19.88;;
2061;SDS011;11070;51.336;12.340;2023-04-15T11:45:08;28.40;;;19.80;;
2061;SDS011;11070;51.336;12.340;2023-04-15T11:47:39;27.08;;;20.73;;
2061;SDS011;11070;51.336;12.340;2023-04-15T11:50:39;29.77;;;21.90;;
2061;SDS011;11070;51.336;12.340;2023-04-15T11:53:02;24.70;;;20.60;;
2061;SDS011;11070;51.336;12.340;2023-04-15T11:55:30;23.52;;;18.80;;
2061;SDS011;11070;51.336;12.340;2023-04-15T11:58:12;25.20;;;20.33;;
2061;SDS011;11070;51.336;12.340;2023-04-15T12:00:40;25.00;;;19.88;;
2061;SDS011;11070;51.336;12.340;2023-04-15T12:06:08;21.85;;;18.52;;
2061;SDS011;11070;51.336;12.340;2023-04-15T12:08:48;24.17;;;18.75;;
2061;SDS011;11070;51.336;12.340;2023-04-15T12:13:53;23.70;;;19.33;;
2061;SDS011;11070;51.336;12.340;2023-04-15T12:16:21;23.65;;;18.83;;
2061;SDS011;11070;51.336;12.340;2023-04-15T12:18:51;21.48;;;18.50;;
2061;SDS011;11070;51.336;12.340;2023-04-15T12:21:20;20.75;;;17.80;;
2061;SDS011;11070;51.336;12.340;2023-04-15T12:23:50;20.92;;;17.35;;
2061;SDS011;11070;51.336;12.340;2023-04-15T12:26:18;21.00;;;18.25;;
2061;SDS011;11070;51.336;12.340;2023-04-15T12:28:54;21.45;;;18.48;;
2061;SDS011;11070;51.336;12.340;2023-04-15T12:31:25;21.08;;;17.92;;
2061;SDS011;11070;51.336;12.340;2023-04-15T12:33:51;18.43;;;16.17;;
2061;SDS011;11070;51.336;12.340;2023-04-15T12:36:20;17.67;;;14.93;;
2061;SDS011;11070;51.336;12.340;2023-04-15T12:38:45;18.53;;;15.77;;
2061;SDS011;11070;51.336;12.340;2023-04-15T12:41:11;16.00;;;14.30;;
2061;SDS011;11070;51.336;12.340;2023-04-15T12:43:37;18.10;;;14.57;;
2061;SDS011;11070;51.336;12.340;2023-04-15T12:46:02;17.57;;;15.57;;
2061;SDS011;11070;51.336;12.340;2023-04-15T12:48:28;15.38;;;13.77;;
2061;SDS011;11070;51.336;12.340;2023-04-15T12:50:55;15.70;;;13.40;;
2061;SDS011;11070;51.336;12.340;2023-04-15T12:53:21;13.40;;;12.00;;
2061;SDS011;11070;51.336;12.340;2023-04-15T12:55:47;13.33;;;11.93;;
2061;SDS011;11070;51.336;12.340;2023-04-15T12:58:12;21.30;;;16.10;;
2061;SDS011;11070;51.336;12.340;2023-04-15T13:00:38;16.53;;;14.67;;
2061;SDS011;11070;51.336;12.340;2023-04-15T13:03:03;13.10;;;11.70;;
2061;SDS011;11070;51.336;12.340;2023-04-15T13:05:29;12.50;;;11.20;;
2061;SDS011;11070;51.336;12.340;2023-04-15T13:07:55;13.17;;;11.90;;
2061;SDS011;11070;51.336;12.340;2023-04-15T13:10:21;15.13;;;12.63;;
2061;SDS011;11070;51.336;12.340;2023-04-15T13:12:50;14.70;;;12.93;;
2061;SDS011;11070;51.336;12.340;2023-04-15T13:15:18;17.05;;;13.55;;
2061;SDS011;11070;51.336;12.340;2023-04-15T13:17:45;16.85;;;14.15;;
2061;SDS011;11070;51.336;12.340;2023-04-15T13:20:11;14.40;;;12.90;;
2061;SDS011;11070;51.336;12.340;2023-04-15T13:22:36;13.27;;;11.97;;
2061;SDS011;11070;51.336;12.340;2023-04-15T13:25:02;14.07;;;12.50;;
2061;SDS011;11070;51.336;12.340;2023-04-15T13:27:29;12.50;;;11.27;;
2061;SDS011;11070;51.336;12.340;2023-04-15T13:29:58;12.98;;;11.77;;
2061;SDS011;11070;51.336;12.340;2023-04-15T13:32:29;13.23;;;11.93;;
2061;SDS011;11070;51.336;12.340;2023-04-15T13:35:15;13.40;;;12.10;;
2061;SDS011;11070;51.336;12.340;2023-04-15T13:37:51;11.80;;;10.68;;
2061;SDS011;11070;51.336;12.340;2023-04-15T13:40:39;11.93;;;10.50;;
2061;SDS011;11070;51.336;12.340;2023-04-15T13:43:21;12.23;;;10.93;;
2061;SDS011;11070;51.336;12.340;2023-04-15T13:46:03;12.40;;;11.07;;
2061;SDS011;11070;51.336;12.340;2023-04-15T13:48:55;11.60;;;10.50;;
2061;SDS011;11070;51.336;12.340;2023-04-15T13:51:44;10.93;;;9.88;;
2061;SDS011;11070;51.336;12.340;2023-04-15T13:54:18;10.95;;;9.85;;
2061;SDS011;11070;51.336;12.340;2023-04-15T13:56:53;9.77;;;8.88;;
2061;SDS011;11070;51.336;12.340;2023-04-15T13:59:21;11.48;;;10.00;;
2061;SDS011;11070;51.336;12.340;2023-04-15T14:01:57;11.27;;;10.20;;
2061;SDS011;11070;51.336;12.340;2023-04-15T14:04:40;10.13;;;9.13;;
2061;SDS011;11070;51.336;12.340;2023-04-15T14:07:09;11.70;;;10.50;;
2061;SDS011;11070;51.336;12.340;2023-04-15T14:09:38;11.75;;;10.55;;
2061;SDS011;11070;51.336;12.340;2023-04-15T14:12:12;15.60;;;12.40;;
2061;SDS011;11070;51.336;12.340;2023-04-15T14:14:47;11.40;;;10.25;;
2061;SDS011;11070;51.336;12.340;2023-04-15T14:17:21;13.13;;;11.85;;
2061;SDS011;11070;51.336;12.340;2023-04-15T14:19:53;11.85;;;10.75;;
2061;SDS011;11070;51.336;12.340;2023-04-15T14:22:26;12.80;;;11.50;;
2061;SDS011;11070;51.336;12.340;2023-04-15T14:25:03;12.50;;;11.20;;
2061;SDS011;11070;51.336;12.340;2023-04-15T14:27:30;11.13;;;10.02;;
2061;SDS011;11070;51.336;12.340;2023-04-15T14:29:55;13.20;;;11.90;;
2061;SDS011;11070;51.336;12.340;2023-04-15T14:32:23;13.82;;;12.43;;
2061;SDS011;11070;51.336;12.340;2023-04-15T14:34:50;13.40;;;12.00;;
2061;SDS011;11070;51.336;12.340;2023-04-15T14:37:15;14.20;;;12.20;;
2061;SDS011;11070;51.336;12.340;2023-04-15T14:39:41;12.30;;;10.97;;
2061;SDS011;11070;51.336;12.340;2023-04-15T14:42:07;11.77;;;10.60;;
2061;SDS011;11070;51.336;12.340;2023-04-15T14:44:32;12.90;;;10.70;;
2061;SDS011;11070;51.336;12.340;2023-04-15T14:46:58;13.87;;;12.47;;
2061;SDS011;11070;51.336;12.340;2023-04-15T14:49:24;11.97;;;10.77;;
2061;SDS011;11070;51.336;12.340;2023-04-15T14:51:50;12.55;;;10.75;;